Time;durP1;ratioP1;P1;durP2;ratioP2;P2;SDS_P1;SDS_P2;PMS_P1;PMS_P2;Temp;Humidity;BMP_temperature;BMP_pressure;BME280_temperature;BME280_humidity;BME280_pressure;Samples;Min_cycle;Max_cycle;Signal;HPM_P1;HPM_P2
2023/02/01 00:01:22;;;;;;;;;;;;;;;4.10;46.57;93203.19;2048223;70;20392;-77
2023/02/01 00:03:50;;;;;;;;;;;;;;;3.70;47.96;93197.41;2048323;70;20047;-76
2023/02/01 00:06:16;;;;;;;;;;;;;;;3.98;47.69;93197.25;2048160;70;20046;-76
2023/02/01 00:08:41;;;;;;;;;;;;;;;3.95;48.51;93206.72;2047937;70;20049;-77
2023/02/01 00:11:08;;;;;;;;;;;;;;;3.96;47.64;93201.91;2048262;70;20069;-77
2023/02/01 00:13:35;;;;;;;;;;;;;;;4.08;47.40;93200.25;2048058;70;20055;-76
2023/02/01 00:16:04;;;;;;;;;;;;;;;4.10;45.66;93192.06;2044467;70;20051;-75
2023/02/01 00:18:31;;;;;;;;;;;;;;;4.03;47.51;93204.69;2048089;70;20091;-75
2023/02/01 00:20:56;;;;;;;;;;;;;;;3.56;48.13;93199.59;2048116;70;20063;-76
2023/02/01 00:23:22;;;;;;;;;;;;;;;3.80;47.15;93193.53;2048102;70;20118;-75
2023/02/01 00:25:47;;;;;;;;;;;;;;;3.85;47.46;93188.31;2048181;70;20062;-76
2023/02/01 00:28:13;;;;;;;;;;;;;;;3.80;47.42;93187.97;2048072;70;20059;-76
2023/02/01 00:30:40;;;;;;;;;;;;;;;3.83;47.45;93184.03;2048107;70;20055;-75
2023/02/01 00:33:06;;;;;;;;;;;;;;;3.60;46.79;93177.72;2048068;70;20046;-75
2023/02/01 00:35:33;;;;;;;;;;;;;;;3.70;45.59;93175.84;2044518;70;20419;-76
2023/02/01 00:38:00;;;;;;;;;;;;;;;3.74;46.76;93176.25;2048280;70;20055;-75
2023/02/01 00:40:26;;;;;;;;;;;;;;;3.72;46.96;93162.13;2048179;70;20487;-75
2023/02/01 00:42:51;;;;;;;;;;;;;;;3.83;46.65;93169.38;2047809;70;20471;-75
2023/02/01 00:45:17;;;;;;;;;;;;;;;3.24;48.39;93175.75;2044677;70;20055;-76
2023/02/01 00:47:43;;;;;;;;;;;;;;;3.37;48.43;93172.09;2048448;70;20051;-75
2023/02/01 00:50:08;;;;;;;;;;;;;;;3.45;47.92;93163.75;2044599;70;20047;-76
2023/02/01 00:52:34;;;;;;;;;;;;;;;3.33;48.10;93162.63;2048282;70;20070;-76
2023/02/01 00:54:59;;;;;;;;;;;;;;;2.82;49.13;93161.31;2048283;70;20109;-76
2023/02/01 00:57:27;;;;;;;;;;;;;;;3.08;49.02;93156.81;2041718;70;20047;-75
2023/02/01 00:59:53;;;;;;;;;;;;;;;3.08;48.67;93149.19;2044727;70;20055;-75
2023/02/01 01:02:19;;;;;;;;;;;;;;;3.18;47.68;93152.94;2048316;70;20070;-75
2023/02/01 01:04:46;;;;;;;;;;;;;;;2.95;48.58;93152.13;2044591;70;20104;-75
2023/02/01 01:07:11;;;;;;;;;;;;;;;2.96;49.36;93157.13;2044629;70;20047;-76
2023/02/01 01:09:37;;;;;;;;;;;;;;;3.08;48.79;93140.84;2044584;70;20483;-76
2023/02/01 01:12:03;;;;;;;;;;;;;;;3.08;48.23;93132.50;2044317;70;20515;-76
2023/02/01 01:14:30;;;;;;;;;;;;;;;2.89;50.48;93143.94;2041818;70;20177;-76
2023/02/01 01:16:56;;;;;;;;;;;;;;;2.89;49.77;93154.31;2044488;70;20050;-76
2023/02/01 01:19:22;;;;;;;;;;;;;;;2.65;49.85;93142.34;2048141;70;20047;-77
2023/02/01 01:21:47;;;;;;;;;;;;;;;2.18;50.89;93129.47;2048408;70;20518;-76
2023/02/01 01:24:13;;;;;;;;;;;;;;;2.64;49.10;93126.22;2044742;70;20510;-76
2023/02/01 01:26:38;;;;;;;;;;;;;;;2.17;50.76;93138.38;2044410;70;20047;-76
2023/02/01 01:29:04;;;;;;;;;;;;;;;2.13;51.21;93140.75;2047982;70;20107;-76
2023/02/01 01:31:30;;;;;;;;;;;;;;;2.36;50.44;93121.44;2047950;70;20133;-76
2023/02/01 01:33:57;;;;;;;;;;;;;;;2.25;50.68;93114.16;2044431;70;20063;-75
2023/02/01 01:36:23;;;;;;;;;;;;;;;2.42;50.34;93105.34;2043634;70;20062;-77
2023/02/01 01:38:50;;;;;;;;;;;;;;;2.46;50.33;93102.97;2041270;70;20067;-77
2023/02/01 01:41:18;;;;;;;;;;;;;;;2.67;48.51;93111.22;2043905;70;20415;-77
2023/02/01 01:43:54;;;;;;;;;;;;;;;2.24;50.46;93116.19;2043901;70;20419;-77
2023/02/01 01:46:26;;;;;;;;;;;;;;;2.36;50.08;93113.84;2043948;70;20082;-77
2023/02/01 01:49:04;;;;;;;;;;;;;;;2.16;51.43;93095.97;2043827;70;20047;-76
2023/02/01 01:51:33;;;;;;;;;;;;;;;2.57;49.16;93102.66;2043916;70;20055;-77
2023/02/01 01:54:06;;;;;;;;;;;;;;;2.28;50.09;93105.47;2043745;70;20542;-77
2023/02/01 01:56:33;;;;;;;;;;;;;;;2.45;49.08;93104.25;2044397;70;20071;-76
2023/02/01 01:59:01;;;;;;;;;;;;;;;2.07;50.51;93096.47;2043715;70;20185;-77
2023/02/01 02:01:27;;;;;;;;;;;;;;;2.13;50.65;93101.88;2043781;70;20063;-77
2023/02/01 02:03:54;;;;;;;;;;;;;;;1.90;50.72;93102.47;2044373;70;20051;-77
2023/02/01 02:06:26;;;;;;;;;;;;;;;2.09;50.65;93104.97;2044232;70;20666;-77
2023/02/01 02:08:52;;;;;;;;;;;;;;;2.17;50.32;93091.16;2044184;70;20051;-76
2023/02/01 02:11:18;;;;;;;;;;;;;;;2.16;51.13;93101.53;2044246;70;20102;-76
2023/02/01 02:13:46;;;;;;;;;;;;;;;2.05;50.54;93101.81;2040803;70;20487;-75
2023/02/01 02:16:35;;;;;;;;;;;;;;;1.91;51.63;93078.94;2043798;70;20463;-74
2023/02/01 02:19:06;;;;;;;;;;;;;;;2.02;50.65;93077.94;2043811;70;20070;-75
2023/02/01 02:21:51;;;;;;;;;;;;;;;1.80;51.42;93095.91;2044371;70;20146;-75
2023/02/01 02:24:39;;;;;;;;;;;;;;;1.77;52.06;93103.28;2043826;70;20055;-75
2023/02/01 02:27:24;;;;;;;;;;;;;;;1.86;51.46;93077.06;2040800;70;20143;-75
2023/02/01 02:30:02;;;;;;;;;;;;;;;1.91;50.95;93081.72;2043775;70;20044;-76
2023/02/01 02:32:45;;;;;;;;;;;;;;;1.94;51.59;93093.78;2044155;70;20063;-77
2023/02/01 02:35:11;;;;;;;;;;;;;;;1.73;51.51;93075.13;2045568;70;20051;-76
2023/02/01 02:37:40;;;;;;;;;;;;;;;1.72;51.62;93089.56;2044240;70;20050;-75
2023/02/01 02:40:16;;;;;;;;;;;;;;;1.53;52.74;93109.94;2047957;70;20134;-77
2023/02/01 02:48:25;;;;;;;;;;;;;;;1.56;52.20;93085.94;2044464;70;20043;-76
2023/02/01 03:04:55;;;;;;;;;;;;;;;1.32;52.76;93067.59;2044257;70;20055;-75
2023/02/01 03:07:41;;;;;;;;;;;;;;;1.53;52.68;93065.56;2044731;70;20059;-75
2023/02/01 03:10:10;;;;;;;;;;;;;;;1.16;53.02;93061.19;2042136;70;20050;-75
2023/02/01 03:12:57;;;;;;;;;;;;;;;1.38;52.64;93073.03;2044738;70;20046;-75
2023/02/01 03:15:38;;;;;;;;;;;;;;;1.45;52.71;93061.97;2044802;70;20051;-77
2023/02/01 03:18:07;;;;;;;;;;;;;;;1.32;52.60;93072.41;2048491;70;20498;-75
2023/02/01 03:20:33;;;;;;;;;;;;;;;1.46;52.22;93074.56;2044747;70;20119;-77
2023/02/01 03:22:59;;;;;;;;;;;;;;;1.40;52.82;93073.94;2044820;70;20059;-75
2023/02/01 03:25:30;;;;;;;;;;;;;;;1.01;53.88;93089.50;2044347;70;20435;-75
2023/02/01 03:27:59;;;;;;;;;;;;;;;1.11;54.00;93092.56;2048799;70;20069;-75
2023/02/01 03:30:28;;;;;;;;;;;;;;;1.19;53.37;93084.31;2051675;70;20042;-75
2023/02/01 03:32:59;;;;;;;;;;;;;;;1.24;53.04;93091.75;2053023;70;20054;-75
2023/02/01 03:35:30;;;;;;;;;;;;;;;1.13;53.41;93078.91;2051062;70;20050;-76
2023/02/01 03:38:00;;;;;;;;;;;;;;;1.35;52.93;93076.88;2051025;70;20046;-76
2023/02/01 03:40:27;;;;;;;;;;;;;;;0.91;53.86;93082.94;2048418;70;20529;-75
2023/02/01 03:42:55;;;;;;;;;;;;;;;0.81;54.25;93087.44;2050998;70;20055;-76
2023/02/01 03:45:22;;;;;;;;;;;;;;;0.97;54.34;93082.81;2048102;70;20055;-76
2023/02/01 03:47:51;;;;;;;;;;;;;;;1.02;53.96;93085.47;2047724;70;20069;-75
2023/02/01 03:50:19;;;;;;;;;;;;;;;1.27;52.70;93076.78;2048225;70;20610;-77
2023/02/01 03:52:48;;;;;;;;;;;;;;;1.43;52.87;93080.47;2048126;70;20049;-76
2023/02/01 03:55:16;;;;;;;;;;;;;;;1.64;50.71;93083.19;2051112;70;20054;-75
2023/02/01 03:57:45;;;;;;;;;;;;;;;1.29;51.67;93079.06;2048225;70;20042;-75
2023/02/01 04:00:19;;;;;;;;;;;;;;;1.38;51.75;93056.38;2051535;70;20133;-75
2023/02/01 04:02:44;;;;;;;;;;;;;;;1.56;50.68;93071.28;2047782;70;20499;-75
2023/02/01 04:05:09;;;;;;;;;;;;;;;1.42;52.12;93076.94;2050914;70;20199;-74
2023/02/01 04:07:37;;;;;;;;;;;;;;;1.59;50.44;93062.63;2048260;70;20509;-75
2023/02/01 04:10:03;;;;;;;;;;;;;;;1.70;50.86;93061.63;2048010;70;20051;-76
2023/02/01 04:12:29;;;;;;;;;;;;;;;1.82;50.50;93062.78;2051566;70;20078;-76
2023/02/01 04:14:54;;;;;;;;;;;;;;;1.81;50.69;93052.25;2051388;70;20422;-75
2023/02/01 04:17:20;;;;;;;;;;;;;;;1.83;50.60;93046.88;2048231;70;20523;-75
2023/02/01 04:19:48;;;;;;;;;;;;;;;1.67;50.45;93060.66;2051526;70;20047;-75
2023/02/01 04:22:14;;;;;;;;;;;;;;;1.72;50.90;93056.25;2051573;70;20043;-76
2023/02/01 04:24:39;;;;;;;;;;;;;;;1.86;49.73;93040.97;2048194;70;20057;-76
2023/02/01 04:27:05;;;;;;;;;;;;;;;2.07;48.55;93035.38;2051579;70;20046;-74
2023/02/01 04:29:30;;;;;;;;;;;;;;;2.15;48.79;93036.13;2051559;70;20153;-77
2023/02/01 04:31:55;;;;;;;;;;;;;;;2.09;48.94;93035.53;2051592;70;20050;-75
2023/02/01 04:34:22;;;;;;;;;;;;;;;1.85;49.07;93047.81;2051812;70;20049;-76
2023/02/01 04:36:48;;;;;;;;;;;;;;;1.96;48.12;93047.50;2051649;70;20046;-75
2023/02/01 04:39:13;;;;;;;;;;;;;;;2.02;48.57;93039.78;2051611;70;20046;-75
2023/02/01 04:41:39;;;;;;;;;;;;;;;2.12;48.58;93042.06;2051727;70;20045;-75
2023/02/01 04:44:04;;;;;;;;;;;;;;;2.24;47.98;93034.88;2051505;70;20090;-75
2023/02/01 04:46:30;;;;;;;;;;;;;;;2.18;47.65;93037.06;2051608;70;20450;-76
2023/02/01 04:48:55;;;;;;;;;;;;;;;2.18;48.28;93026.72;2048275;70;20429;-77
2023/02/01 04:51:21;;;;;;;;;;;;;;;2.16;47.65;93029.31;2051593;70;20082;-77
2023/02/01 04:53:47;;;;;;;;;;;;;;;1.97;48.87;93045.47;2051027;70;20479;-76
2023/02/01 04:56:12;;;;;;;;;;;;;;;2.01;48.71;93026.44;2051649;70;20046;-76
2023/02/01 04:58:37;;;;;;;;;;;;;;;2.06;49.29;93022.75;2051386;70;20054;-77
2023/02/01 05:01:04;;;;;;;;;;;;;;;2.20;48.80;93023.38;2051635;70;20048;-76
2023/02/01 05:03:30;;;;;;;;;;;;;;;2.09;48.32;93023.69;2048302;70;20581;-76
2023/02/01 05:05:56;;;;;;;;;;;;;;;2.27;47.41;93020.63;2048331;70;20490;-76
2023/02/01 05:08:22;;;;;;;;;;;;;;;2.17;49.10;93013.38;2051645;70;20054;-76
2023/02/01 05:10:47;;;;;;;;;;;;;;;2.17;48.76;93016.16;2051054;70;20442;-76
2023/02/01 05:15:57;;;;;;;;;;;;;;;1.94;50.76;93025.09;2051623;70;20050;-76
2023/02/01 05:18:23;;;;;;;;;;;;;;;1.97;49.00;93017.69;2051642;70;20038;-76
2023/02/01 05:20:48;;;;;;;;;;;;;;;2.03;48.15;93034.97;2051668;70;20051;-76
2023/02/01 05:23:14;;;;;;;;;;;;;;;1.90;48.37;93049.69;2051728;70;20035;-76
2023/02/01 05:25:39;;;;;;;;;;;;;;;1.57;50.18;93029.13;2051674;70;20423;-75
2023/02/01 05:28:04;;;;;;;;;;;;;;;1.65;49.78;93032.72;2050813;70;20113;-75
2023/02/01 05:30:34;;;;;;;;;;;;;;;1.91;47.92;93053.97;2048120;70;20074;-75
2023/02/01 05:33:00;;;;;;;;;;;;;;;1.73;48.96;93046.63;2051574;70;20070;-76
2023/02/01 05:35:25;;;;;;;;;;;;;;;1.99;49.33;93043.66;2051558;70;20058;-75
2023/02/01 05:37:51;;;;;;;;;;;;;;;1.95;49.38;93046.03;2051622;70;20046;-77
2023/02/01 05:40:18;;;;;;;;;;;;;;;2.01;48.45;93062.53;2048457;70;20050;-76
2023/02/01 05:42:43;;;;;;;;;;;;;;;1.97;49.22;93062.13;2051471;70;20082;-76
2023/02/01 05:45:09;;;;;;;;;;;;;;;1.95;50.18;93068.25;2051605;70;20154;-75
2023/02/01 05:47:35;;;;;;;;;;;;;;;1.86;50.53;93065.97;2051632;70;20050;-76
2023/02/01 05:50:00;;;;;;;;;;;;;;;1.93;48.75;93061.75;2051579;70;20062;-76
2023/02/01 05:52:26;;;;;;;;;;;;;;;1.76;49.72;93070.53;2051506;70;20058;-76
2023/02/01 05:54:52;;;;;;;;;;;;;;;1.82;49.51;93079.44;2051495;70;20050;-76
2023/02/01 05:57:18;;;;;;;;;;;;;;;1.71;50.02;93077.72;2051503;70;20113;-76
2023/02/01 05:59:45;;;;;;;;;;;;;;;1.70;50.84;93083.81;2051549;70;20477;-76
2023/02/01 06:02:13;;;;;;;;;;;;;;;1.65;50.18;93077.13;2051506;70;20155;-76
2023/02/01 06:04:39;;;;;;;;;;;;;;;1.56;50.77;93069.28;2051501;70;20049;-76
2023/02/01 06:07:05;;;;;;;;;;;;;;;1.74;50.23;93086.97;2051318;70;20478;-76
2023/02/01 06:09:31;;;;;;;;;;;;;;;1.48;51.06;93079.56;2051392;70;20473;-75
2023/02/01 06:11:57;;;;;;;;;;;;;;;1.25;52.02;93077.34;2051428;70;20046;-76
2023/02/01 06:14:23;;;;;;;;;;;;;;;1.45;50.66;93078.63;2048211;70;20050;-75
2023/02/01 06:16:49;;;;;;;;;;;;;;;1.61;50.83;93070.44;2051477;70;20043;-76
2023/02/01 06:19:14;;;;;;;;;;;;;;;1.55;50.93;93080.91;2051465;70;20146;-76
2023/02/01 06:21:39;;;;;;;;;;;;;;;1.64;49.95;93075.63;2051557;70;20072;-76
2023/02/01 06:24:06;;;;;;;;;;;;;;;1.80;50.01;93078.53;2051418;70;20137;-76
2023/02/01 06:26:31;;;;;;;;;;;;;;;1.53;51.65;93062.78;2051524;70;20072;-76
2023/02/01 06:28:57;;;;;;;;;;;;;;;1.45;50.02;93066.78;2051314;70;20130;-78
2023/02/01 06:31:22;;;;;;;;;;;;;;;1.63;49.33;93082.47;2051430;70;20113;-75
2023/02/01 06:33:48;;;;;;;;;;;;;;;1.66;48.88;93075.81;2047794;70;20156;-77
2023/02/01 06:36:15;;;;;;;;;;;;;;;1.53;50.09;93070.38;2051304;70;20058;-77
2023/02/01 06:38:43;;;;;;;;;;;;;;;1.64;49.93;93072.84;2048201;70;20046;-77
2023/02/01 06:41:08;;;;;;;;;;;;;;;1.57;48.85;93072.81;2051498;70;20043;-77
2023/02/01 06:43:37;;;;;;;;;;;;;;;1.66;48.92;93069.53;2051738;70;20058;-76
2023/02/01 06:46:04;;;;;;;;;;;;;;;1.57;49.30;93048.56;2051757;70;20064;-76
2023/02/01 06:48:30;;;;;;;;;;;;;;;1.75;48.40;93061.47;2048472;70;20066;-75
2023/02/01 06:50:55;;;;;;;;;;;;;;;1.55;48.54;93062.22;2051862;70;20411;-76
2023/02/01 06:53:21;;;;;;;;;;;;;;;1.77;48.11;93053.31;2051873;70;20375;-75
2023/02/01 06:55:52;;;;;;;;;;;;;;;1.84;48.31;93059.47;2051849;70;20050;-76
2023/02/01 06:58:18;;;;;;;;;;;;;;;1.75;48.62;93069.78;2051767;70;20114;-76
2023/02/01 07:00:43;;;;;;;;;;;;;;;1.77;48.17;93075.53;2051886;70;20426;-75
2023/02/01 07:03:09;;;;;;;;;;;;;;;1.84;48.43;93073.38;2051984;70;20092;-75
2023/02/01 07:05:34;;;;;;;;;;;;;;;1.72;48.37;93081.97;2052017;70;20050;-76
2023/02/01 07:07:59;;;;;;;;;;;;;;;1.75;48.27;93085.69;2048623;70;20054;-76
2023/02/01 07:10:25;;;;;;;;;;;;;;;1.74;48.81;93093.28;2051907;70;20526;-76
2023/02/01 07:12:50;;;;;;;;;;;;;;;1.79;47.81;93097.22;2051639;70;20093;-75
2023/02/01 07:15:17;;;;;;;;;;;;;;;1.99;47.45;93081.78;2048490;70;20089;-75
2023/02/01 07:17:44;;;;;;;;;;;;;;;1.95;47.56;93089.72;2051660;70;20471;-75
2023/02/01 07:20:09;;;;;;;;;;;;;;;2.11;47.46;93098.88;2048694;70;20552;-75
2023/02/01 07:22:35;;;;;;;;;;;;;;;2.12;48.41;93094.81;2051897;70;20054;-76
2023/02/01 07:25:00;;;;;;;;;;;;;;;1.94;49.00;93116.00;2051878;70;20067;-77
2023/02/01 07:27:26;;;;;;;;;;;;;;;1.76;49.59;93095.50;2051833;70;20047;-76
2023/02/01 07:29:52;;;;;;;;;;;;;;;1.71;50.21;93096.41;2048713;70;20073;-76
2023/02/01 07:32:17;;;;;;;;;;;;;;;1.82;49.70;93120.34;2051683;70;20547;-76
2023/02/01 07:34:43;;;;;;;;;;;;;;;1.95;50.32;93111.94;2051661;70;20051;-76
2023/02/01 07:37:09;;;;;;;;;;;;;;;2.03;49.40;93096.81;2051754;70;20114;-76
2023/02/01 07:39:35;;;;;;;;;;;;;;;2.24;48.93;93093.22;2051693;70;20038;-76
2023/02/01 07:42:00;;;;;;;;;;;;;;;2.22;48.15;93109.69;2050928;70;20133;-76
2023/02/01 07:44:25;;;;;;;;;;;;;;;2.50;48.68;93112.44;2051788;70;20471;-76
2023/02/01 07:46:51;;;;;;;;;;;;;;;2.60;48.79;93100.81;2051984;70;20050;-76
2023/02/01 07:49:17;;;;;;;;;;;;;;;2.20;49.47;93099.13;2051696;70;20149;-77
2023/02/01 07:51:43;;;;;;;;;;;;;;;2.51;49.05;93102.06;2051609;70;20486;-76
2023/02/01 07:54:08;;;;;;;;;;;;;;;2.79;48.95;93110.34;2051646;70;20121;-76
2023/02/01 07:56:34;;;;;;;;;;;;;;;2.41;48.83;93106.66;2051739;70;20047;-76
2023/02/01 07:59:00;;;;;;;;;;;;;;;2.83;48.88;93109.97;2051635;70;20144;-75
2023/02/01 08:01:26;;;;;;;;;;;;;;;2.79;49.16;93102.00;2051473;70;20061;-76
2023/02/01 08:03:58;;;;;;;;;;;;;;;2.94;49.04;93095.00;2051178;70;20054;-75
2023/02/01 08:06:24;;;;;;;;;;;;;;;2.35;49.57;93111.63;2051687;70;20097;-75
2023/02/01 08:08:50;;;;;;;;;;;;;;;2.58;49.35;93123.59;2051663;70;20392;-75
2023/02/01 08:11:17;;;;;;;;;;;;;;;3.01;48.72;93125.59;2051698;70;20062;-74
2023/02/01 08:13:43;;;;;;;;;;;;;;;3.12;48.84;93118.25;2051525;70;20411;-75
2023/02/01 08:16:09;;;;;;;;;;;;;;;2.72;48.75;93141.63;2051629;70;20097;-75
2023/02/01 08:18:35;;;;;;;;;;;;;;;3.02;48.75;93151.38;2051573;70;20475;-75
2023/02/01 08:21:05;;;;;;;;;;;;;;;2.87;49.12;93152.06;2051601;70;20059;-75
2023/02/01 08:23:32;;;;;;;;;;;;;;;2.52;48.07;93142.44;2051606;70;20428;-75
2023/02/01 08:26:07;;;;;;;;;;;;;;;2.78;46.92;93156.13;2051819;70;20145;-75
2023/02/01 08:28:34;;;;;;;;;;;;;;;2.80;48.43;93153.53;2051592;70;20050;-76
2023/02/01 08:31:03;;;;;;;;;;;;;;;3.00;47.38;93153.97;2051592;70;20552;-74
2023/02/01 08:33:28;;;;;;;;;;;;;;;3.04;45.67;93151.59;2051445;70;20045;-75
2023/02/01 08:35:54;;;;;;;;;;;;;;;3.39;45.60;93146.47;2051541;70;20178;-75
2023/02/01 08:38:19;;;;;;;;;;;;;;;3.32;45.58;93145.19;2051332;70;20046;-74
2023/02/01 08:40:46;;;;;;;;;;;;;;;3.30;45.21;93145.00;2051550;70;20582;-74
2023/02/01 08:43:11;;;;;;;;;;;;;;;3.55;45.80;93151.53;2051443;70;20066;-75
2023/02/01 08:45:37;;;;;;;;;;;;;;;3.81;45.99;93152.50;2051499;70;20050;-75
2023/02/01 08:48:02;;;;;;;;;;;;;;;3.96;45.26;93143.41;2051496;70;20045;-76
2023/02/01 08:50:28;;;;;;;;;;;;;;;4.04;45.32;93141.34;2051485;70;20488;-76
2023/02/01 08:52:53;;;;;;;;;;;;;;;3.96;45.37;93140.59;2051503;70;20510;-75
2023/02/01 08:55:19;;;;;;;;;;;;;;;3.75;45.69;93147.09;2051623;70;20479;-75
2023/02/01 08:57:44;;;;;;;;;;;;;;;3.91;46.02;93163.81;2051369;70;20042;-74
2023/02/01 09:00:15;;;;;;;;;;;;;;;4.01;46.09;93153.59;2051413;70;20054;-76
2023/02/01 09:02:41;;;;;;;;;;;;;;;3.66;46.37;93160.81;2051640;70;20495;-76
2023/02/01 09:05:06;;;;;;;;;;;;;;;4.24;46.28;93157.13;2051354;70;20055;-76
2023/02/01 09:07:33;;;;;;;;;;;;;;;4.46;45.59;93143.72;2051654;70;20561;-76
2023/02/01 09:10:00;;;;;;;;;;;;;;;3.87;46.94;93155.09;2051649;70;20043;-76
2023/02/01 09:12:27;;;;;;;;;;;;;;;3.87;46.23;93147.47;2051543;70;20145;-76
2023/02/01 09:14:52;;;;;;;;;;;;;;;4.27;46.14;93158.81;2051375;70;20537;-76
2023/02/01 09:17:18;;;;;;;;;;;;;;;4.63;46.28;93157.06;2051710;70;20043;-76
2023/02/01 09:19:43;;;;;;;;;;;;;;;4.81;45.96;93148.28;2051608;70;20105;-76
2023/02/01 09:22:08;;;;;;;;;;;;;;;4.84;46.10;93132.44;2051700;70;20142;-76
2023/02/01 09:24:37;;;;;;;;;;;;;;;4.79;45.55;93131.34;2048284;70;20039;-76
2023/02/01 09:27:03;;;;;;;;;;;;;;;3.96;47.05;93151.75;2051701;70;20532;-76
2023/02/01 09:29:28;;;;;;;;;;;;;;;4.36;46.46;93137.97;2051550;70;20047;-76
2023/02/01 09:31:54;;;;;;;;;;;;;;;4.75;46.12;93125.41;2051701;70;20046;-77
2023/02/01 09:34:19;;;;;;;;;;;;;;;5.02;45.69;93120.09;2051561;70;20082;-76
2023/02/01 09:36:44;;;;;;;;;;;;;;;5.25;45.80;93120.00;2048198;70;20099;-76
2023/02/01 09:39:11;;;;;;;;;;;;;;;5.31;41.91;93131.72;2048231;70;20173;-75
2023/02/01 09:41:48;;;;;;;;;;;;;;;5.29;44.38;93139.16;2051692;70;20126;-75
2023/02/01 09:44:21;;;;;;;;;;;;;;;5.26;45.63;93129.84;2048159;70;20050;-75
2023/02/01 09:46:48;;;;;;;;;;;;;;;5.41;45.50;93136.69;2051507;70;20053;-75
2023/02/01 09:49:27;;;;;;;;;;;;;;;5.47;46.13;93137.94;2048248;70;20138;-75
2023/02/01 09:51:53;;;;;;;;;;;;;;;5.74;45.96;93126.22;2048405;70;20137;-76
2023/02/01 09:54:21;;;;;;;;;;;;;;;5.69;45.11;93139.09;2051551;70;20050;-75
2023/02/01 09:56:52;;;;;;;;;;;;;;;5.83;44.93;93162.66;2048166;70;20403;-77
2023/02/01 09:59:37;;;;;;;;;;;;;;;5.86;44.13;93158.75;2051432;70;20196;-76
2023/02/01 10:02:04;;;;;;;;;;;;;;;5.85;43.63;93148.84;2048253;70;20498;-76
2023/02/01 10:04:32;;;;;;;;;;;;;;;6.05;43.34;93151.94;2051544;70;20046;-76
2023/02/01 10:07:33;;;;;;;;;;;;;;;6.01;43.05;93157.19;2051439;70;20049;-77
2023/02/01 10:10:01;;;;;;;;;;;;;;;5.61;45.12;93161.50;2044046;70;20070;-77
2023/02/01 10:12:33;;;;;;;;;;;;;;;5.99;44.29;93149.34;2049848;70;20080;-77
2023/02/01 10:15:17;;;;;;;;;;;;;;;6.04;44.82;93145.56;2051505;70;20078;-77
2023/02/01 10:17:46;;;;;;;;;;;;;;;6.23;43.89;93133.88;2048045;70;20483;-77
2023/02/01 10:20:39;;;;;;;;;;;;;;;6.14;45.00;93126.13;2051451;70;20047;-77
2023/02/01 10:23:09;;;;;;;;;;;;;;;6.30;44.58;93140.72;2051607;70;20176;-75
2023/02/01 10:26:12;;;;;;;;;;;;;;;6.38;42.56;93130.22;2048064;70;20039;-75
2023/02/01 10:28:39;;;;;;;;;;;;;;;6.49;42.64;93137.38;2051088;70;20046;-75
2023/02/01 10:31:05;;;;;;;;;;;;;;;6.54;43.22;93133.59;2051449;70;20063;-75
2023/02/01 10:33:34;;;;;;;;;;;;;;;6.63;41.77;93132.94;2051507;70;20050;-75
2023/02/01 10:36:13;;;;;;;;;;;;;;;6.95;41.16;93132.03;2051391;70;20146;-75
2023/02/01 10:38:39;;;;;;;;;;;;;;;7.01;38.80;93112.94;2048126;70;20047;-76
2023/02/01 10:41:12;;;;;;;;;;;;;;;7.20;37.44;93100.41;2051362;70;20051;-74
2023/02/01 10:43:39;;;;;;;;;;;;;;;7.32;39.75;93116.09;2047976;70;20414;-75
2023/02/01 10:46:04;;;;;;;;;;;;;;;7.55;39.93;93112.25;2051383;70;20146;-75
2023/02/01 10:48:31;;;;;;;;;;;;;;;7.64;39.35;93103.16;2051378;70;20137;-74
2023/02/01 10:50:56;;;;;;;;;;;;;;;7.84;37.94;93087.16;2051378;70;20043;-75
2023/02/01 10:53:25;;;;;;;;;;;;;;;7.91;38.21;93100.31;2051434;70;20162;-74
2023/02/01 10:55:53;;;;;;;;;;;;;;;8.13;38.31;93090.06;2051390;70;20126;-75
2023/02/01 10:58:20;;;;;;;;;;;;;;;8.10;38.81;93080.75;2051240;70;20065;-74
2023/02/01 11:00:47;;;;;;;;;;;;;;;7.98;36.84;93079.09;2051352;70;20058;-75
2023/02/01 11:03:36;;;;;;;;;;;;;;;8.00;37.29;93063.16;2048075;70;20054;-77
2023/02/01 11:06:10;;;;;;;;;;;;;;;8.26;37.14;93053.19;2051281;70;20450;-76
2023/02/01 11:08:43;;;;;;;;;;;;;;;8.10;35.21;93066.72;2048073;70;20435;-76
2023/02/01 11:11:11;;;;;;;;;;;;;;;8.36;37.02;93044.78;2051346;70;20054;-77
2023/02/01 11:13:38;;;;;;;;;;;;;;;8.35;35.27;93043.31;2051228;70;20043;-76
2023/02/01 11:16:04;;;;;;;;;;;;;;;8.32;37.38;93048.03;2051339;70;20063;-77
2023/02/01 11:18:34;;;;;;;;;;;;;;;8.52;35.94;93032.00;2051253;70;20082;-76
2023/02/01 11:21:00;;;;;;;;;;;;;;;8.48;36.54;93030.97;2051241;70;20050;-76
2023/02/01 11:23:27;;;;;;;;;;;;;;;8.79;34.07;93026.22;2048020;70;20050;-77
2023/02/01 11:25:53;;;;;;;;;;;;;;;8.55;35.55;93024.47;2051330;70;20142;-74
2023/02/01 11:28:22;;;;;;;;;;;;;;;9.01;33.03;93020.72;2051324;70;20146;-76
2023/02/01 11:30:48;;;;;;;;;;;;;;;9.07;33.44;93032.38;2051738;70;20055;-76
2023/02/01 11:33:16;;;;;;;;;;;;;;;8.90;32.04;93036.13;2051713;70;20490;-76
2023/02/01 11:35:42;;;;;;;;;;;;;;;9.52;32.71;93013.81;2051802;70;20064;-76
2023/02/01 11:38:15;;;;;;;;;;;;;;;9.29;31.36;93024.81;2051675;70;20046;-76
2023/02/01 11:40:41;;;;;;;;;;;;;;;9.51;32.46;93003.91;2051773;70;20062;-76
2023/02/01 11:43:06;;;;;;;;;;;;;;;9.03;31.90;93024.44;2048377;70;20431;-76
2023/02/01 11:45:34;;;;;;;;;;;;;;;9.38;31.96;93060.59;2051721;70;20137;-76
2023/02/01 11:48:01;;;;;;;;;;;;;;;9.02;31.16;93028.56;2051756;70;20058;-76
2023/02/01 11:50:32;;;;;;;;;;;;;;;9.24;31.90;93023.78;2051762;70;20055;-77
2023/02/01 11:53:05;;;;;;;;;;;;;;;9.46;31.92;93032.31;2051684;70;20046;-76
2023/02/01 11:55:49;;;;;;;;;;;;;;;10.22;31.78;93038.19;2051725;70;20065;-77
2023/02/01 11:58:21;;;;;;;;;;;;;;;10.34;30.58;93031.34;2051704;70;20057;-77
2023/02/01 12:00:53;;;;;;;;;;;;;;;9.60;30.34;93033.31;2051748;70;20422;-76
2023/02/01 12:03:37;;;;;;;;;;;;;;;9.59;30.40;93032.56;2051775;70;20430;-76
2023/02/01 12:06:03;;;;;;;;;;;;;;;10.05;30.81;93014.63;2051652;70;20050;-77
2023/02/01 12:08:40;;;;;;;;;;;;;;;10.41;29.34;93018.44;2051777;70;20090;-78
2023/02/01 12:11:24;;;;;;;;;;;;;;;10.75;29.52;93011.50;2048394;70;20518;-77
2023/02/01 12:14:12;;;;;;;;;;;;;;;10.16;30.01;93002.69;2048205;70;20077;-77
2023/02/01 12:16:43;;;;;;;;;;;;;;;10.13;30.18;93006.00;2050426;70;20055;-77
2023/02/01 12:19:27;;;;;;;;;;;;;;;10.40;30.34;92985.97;2052186;70;20535;-77
2023/02/01 12:21:56;;;;;;;;;;;;;;;9.95;30.72;92982.25;2048302;70;20047;-77
2023/02/01 12:24:28;;;;;;;;;;;;;;;9.93;31.00;92988.47;2051604;70;20131;-77
2023/02/01 12:27:12;;;;;;;;;;;;;;;9.87;29.58;93002.84;2051591;70;20093;-76
2023/02/01 12:29:37;;;;;;;;;;;;;;;9.65;30.63;92962.72;2051564;70;20054;-76
2023/02/01 12:32:21;;;;;;;;;;;;;;;10.39;29.64;92953.53;2051547;70;20419;-77
2023/02/01 12:35:05;;;;;;;;;;;;;;;10.45;29.22;92936.34;2051591;70;20144;-77
2023/02/01 12:37:40;;;;;;;;;;;;;;;10.00;29.78;92933.38;2051538;70;20407;-76
2023/02/01 12:40:06;;;;;;;;;;;;;;;10.57;29.39;92925.84;2051469;70;20050;-76
2023/02/01 12:42:43;;;;;;;;;;;;;;;10.36;29.09;92926.63;2051627;70;20432;-79
2023/02/01 12:45:37;;;;;;;;;;;;;;;10.19;30.36;92924.78;2051411;70;20054;-77
2023/02/01 12:48:03;;;;;;;;;;;;;;;10.17;29.59;92930.28;2044893;70;20166;-77
2023/02/01 12:50:32;;;;;;;;;;;;;;;10.34;29.96;92938.47;2051440;70;20082;-78
2023/02/01 12:53:23;;;;;;;;;;;;;;;10.40;28.99;92926.88;2050464;70;20042;-76
2023/02/01 12:55:52;;;;;;;;;;;;;;;10.34;28.67;92923.66;2050671;70;20046;-77
2023/02/01 12:58:20;;;;;;;;;;;;;;;10.09;29.89;92932.56;2047936;70;20130;-76
2023/02/01 13:00:48;;;;;;;;;;;;;;;9.82;29.50;92936.44;2051351;70;20054;-77
2023/02/01 13:03:32;;;;;;;;;;;;;;;9.83;30.06;92942.78;2051578;70;20198;-77
2023/02/01 13:06:24;;;;;;;;;;;;;;;9.89;29.84;92931.94;2051381;70;20486;-75
2023/02/01 13:09:08;;;;;;;;;;;;;;;9.56;30.82;92929.03;2051153;70;20364;-76
2023/02/01 13:11:34;;;;;;;;;;;;;;;9.85;29.67;92907.13;2051203;70;20541;-76
2023/02/01 13:14:07;;;;;;;;;;;;;;;9.67;30.33;92928.41;2051243;70;20049;-75
2023/02/01 13:16:41;;;;;;;;;;;;;;;9.85;30.31;92915.56;2051366;70;20043;-78
2023/02/01 13:19:27;;;;;;;;;;;;;;;10.25;30.77;92925.22;2051393;70;20505;-76
2023/02/01 13:21:56;;;;;;;;;;;;;;;10.02;30.02;92911.72;2051401;70;20050;-77
2023/02/01 13:24:30;;;;;;;;;;;;;;;10.17;30.28;92913.41;2048147;70;20606;-77
2023/02/01 13:26:56;;;;;;;;;;;;;;;9.91;30.27;92889.91;2051417;70;20049;-77